sensor_id;sensor_type;location;lat;lon;timestamp;P1;durP1;ratioP1;P2;durP2;ratioP2
69588;SDS011;56792;50.644;17.984;2022-11-20T00:02:12;46.80;;;14.40;;
69588;SDS011;56792;50.644;17.984;2022-11-20T00:04:46;45.40;;;14.20;;
69588;SDS011;56792;50.644;17.984;2022-11-20T00:07:19;43.10;;;15.90;;
69588;SDS011;56792;50.644;17.984;2022-11-20T00:09:53;39.60;;;14.00;;
69588;SDS011;56792;50.644;17.984;2022-11-20T00:12:27;37.40;;;14.60;;
69588;SDS011;56792;50.644;17.984;2022-11-20T00:15:00;37.30;;;13.10;;
69588;SDS011;56792;50.644;17.984;2022-11-20T00:17:34;36.90;;;13.50;;
69588;SDS011;56792;50.644;17.984;2022-11-20T00:20:09;43.60;;;14.60;;
69588;SDS011;56792;50.644;17.984;2022-11-20T00:22:43;36.00;;;14.40;;
69588;SDS011;56792;50.644;17.984;2022-11-20T00:25:15;42.30;;;14.50;;
69588;SDS011;56792;50.644;17.984;2022-11-20T00:27:47;40.00;;;13.70;;
69588;SDS011;56792;50.644;17.984;2022-11-20T00:30:20;39.80;;;14.40;;
69588;SDS011;56792;50.644;17.984;2022-11-20T00:32:52;45.60;;;15.80;;
69588;SDS011;56792;50.644;17.984;2022-11-20T00:35:26;37.90;;;14.60;;
69588;SDS011;56792;50.644;17.984;2022-11-20T00:37:58;35.40;;;13.50;;
69588;SDS011;56792;50.644;17.984;2022-11-20T00:40:30;40.90;;;12.70;;
69588;SDS011;56792;50.644;17.984;2022-11-20T00:43:02;44.30;;;15.40;;
69588;SDS011;56792;50.644;17.984;2022-11-20T00:45:34;44.20;;;14.90;;
69588;SDS011;56792;50.644;17.984;2022-11-20T00:48:06;51.70;;;16.80;;
69588;SDS011;56792;50.644;17.984;2022-11-20T00:50:38;42.70;;;15.80;;
69588;SDS011;56792;50.644;17.984;2022-11-20T00:53:10;51.80;;;15.50;;
69588;SDS011;56792;50.644;17.984;2022-11-20T00:55:42;49.20;;;17.10;;
69588;SDS011;56792;50.644;17.984;2022-11-20T00:58:22;43.30;;;15.70;;
69588;SDS011;56792;50.644;17.984;2022-11-20T01:00:54;44.20;;;16.10;;
69588;SDS011;56792;50.644;17.984;2022-11-20T01:03:33;46.40;;;16.40;;
69588;SDS011;56792;50.644;17.984;2022-11-20T01:06:10;53.50;;;18.70;;
69588;SDS011;56792;50.644;17.984;2022-11-20T01:08:45;46.00;;;16.30;;
69588;SDS011;56792;50.644;17.984;2022-11-20T01:11:19;44.30;;;16.10;;
69588;SDS011;56792;50.644;17.984;2022-11-20T01:13:54;50.90;;;18.60;;
69588;SDS011;56792;50.644;17.984;2022-11-20T01:16:28;48.50;;;15.90;;
69588;SDS011;56792;50.644;17.984;2022-11-20T01:19:03;44.20;;;15.70;;
69588;SDS011;56792;50.644;17.984;2022-11-20T01:21:38;43.80;;;14.70;;
69588;SDS011;56792;50.644;17.984;2022-11-20T01:24:13;53.00;;;16.30;;
69588;SDS011;56792;50.644;17.984;2022-11-20T01:26:49;38.80;;;13.60;;
69588;SDS011;56792;50.644;17.984;2022-11-20T01:29:22;43.20;;;15.60;;
69588;SDS011;56792;50.644;17.984;2022-11-20T01:31:55;54.70;;;16.20;;
69588;SDS011;56792;50.644;17.984;2022-11-20T01:34:27;74.70;;;20.40;;
69588;SDS011;56792;50.644;17.984;2022-11-20T01:36:59;72.00;;;20.30;;
69588;SDS011;56792;50.644;17.984;2022-11-20T01:39:31;54.80;;;15.70;;
69588;SDS011;56792;50.644;17.984;2022-11-20T01:42:03;61.20;;;16.40;;
69588;SDS011;56792;50.644;17.984;2022-11-20T01:44:55;49.20;;;14.00;;
69588;SDS011;56792;50.644;17.984;2022-11-20T01:47:36;52.90;;;15.70;;
69588;SDS011;56792;50.644;17.984;2022-11-20T01:50:14;44.40;;;13.20;;
69588;SDS011;56792;50.644;17.984;2022-11-20T01:52:51;39.40;;;13.60;;
69588;SDS011;56792;50.644;17.984;2022-11-20T01:55:30;36.50;;;13.80;;
69588;SDS011;56792;50.644;17.984;2022-11-20T01:58:05;42.50;;;12.90;;
69588;SDS011;56792;50.644;17.984;2022-11-20T02:00:38;45.70;;;14.90;;
69588;SDS011;56792;50.644;17.984;2022-11-20T02:03:12;46.80;;;13.60;;
69588;SDS011;56792;50.644;17.984;2022-11-20T02:05:50;55.40;;;16.40;;
69588;SDS011;56792;50.644;17.984;2022-11-20T02:08:25;56.60;;;14.90;;
69588;SDS011;56792;50.644;17.984;2022-11-20T02:10:58;50.50;;;16.40;;
69588;SDS011;56792;50.644;17.984;2022-11-20T02:13:31;49.90;;;16.80;;
69588;SDS011;56792;50.644;17.984;2022-11-20T02:16:22;50.90;;;15.70;;
69588;SDS011;56792;50.644;17.984;2022-11-20T02:18:57;54.20;;;16.20;;
69588;SDS011;56792;50.644;17.984;2022-11-20T02:21:37;53.10;;;19.00;;
69588;SDS011;56792;50.644;17.984;2022-11-20T02:24:16;49.30;;;18.20;;
69588;SDS011;56792;50.644;17.984;2022-11-20T02:26:51;58.30;;;19.20;;
69588;SDS011;56792;50.644;17.984;2022-11-20T02:29:30;57.20;;;20.00;;
69588;SDS011;56792;50.644;17.984;2022-11-20T02:32:04;49.20;;;17.50;;
69588;SDS011;56792;50.644;17.984;2022-11-20T02:34:47;54.40;;;18.40;;
69588;SDS011;56792;50.644;17.984;2022-11-20T02:37:20;50.60;;;15.70;;
69588;SDS011;56792;50.644;17.984;2022-11-20T02:39:53;49.90;;;14.50;;
69588;SDS011;56792;50.644;17.984;2022-11-20T02:42:25;43.00;;;15.60;;
69588;SDS011;56792;50.644;17.984;2022-11-20T02:44:57;40.40;;;13.20;;
69588;SDS011;56792;50.644;17.984;2022-11-20T02:47:29;45.10;;;14.10;;
69588;SDS011;56792;50.644;17.984;2022-11-20T02:50:02;43.60;;;12.90;;
69588;SDS011;56792;50.644;17.984;2022-11-20T02:52:35;43.70;;;14.10;;
69588;SDS011;56792;50.644;17.984;2022-11-20T02:55:08;50.60;;;14.60;;
69588;SDS011;56792;50.644;17.984;2022-11-20T02:57:40;42.70;;;13.00;;
69588;SDS011;56792;50.644;17.984;2022-11-20T03:00:14;50.20;;;16.10;;
69588;SDS011;56792;50.644;17.984;2022-11-20T03:02:47;57.50;;;18.70;;
69588;SDS011;56792;50.644;17.984;2022-11-20T03:05:19;52.50;;;19.10;;
69588;SDS011;56792;50.644;17.984;2022-11-20T03:07:51;55.40;;;18.30;;
69588;SDS011;56792;50.644;17.984;2022-11-20T03:10:23;53.40;;;17.50;;
69588;SDS011;56792;50.644;17.984;2022-11-20T03:12:56;42.40;;;16.30;;
69588;SDS011;56792;50.644;17.984;2022-11-20T03:15:28;46.30;;;13.70;;
69588;SDS011;56792;50.644;17.984;2022-11-20T03:18:00;44.60;;;15.60;;
69588;SDS011;56792;50.644;17.984;2022-11-20T03:20:33;44.10;;;16.00;;
69588;SDS011;56792;50.644;17.984;2022-11-20T03:23:05;48.80;;;15.50;;
69588;SDS011;56792;50.644;17.984;2022-11-20T03:25:37;48.10;;;15.60;;
69588;SDS011;56792;50.644;17.984;2022-11-20T03:28:09;43.90;;;14.00;;
69588;SDS011;56792;50.644;17.984;2022-11-20T03:30:41;42.00;;;14.80;;
69588;SDS011;56792;50.644;17.984;2022-11-20T03:33:13;48.00;;;15.10;;
69588;SDS011;56792;50.644;17.984;2022-11-20T03:35:45;41.20;;;14.50;;
69588;SDS011;56792;50.644;17.984;2022-11-20T03:38:17;38.20;;;14.00;;
69588;SDS011;56792;50.644;17.984;2022-11-20T03:40:49;45.10;;;14.10;;
69588;SDS011;56792;50.644;17.984;2022-11-20T03:43:21;46.10;;;15.10;;
69588;SDS011;56792;50.644;17.984;2022-11-20T03:45:53;44.50;;;14.20;;
69588;SDS011;56792;50.644;17.984;2022-11-20T03:48:25;43.50;;;13.10;;
69588;SDS011;56792;50.644;17.984;2022-11-20T03:51:10;36.90;;;13.40;;
69588;SDS011;56792;50.644;17.984;2022-11-20T03:53:45;41.90;;;13.10;;
69588;SDS011;56792;50.644;17.984;2022-11-20T03:56:20;46.40;;;14.10;;
69588;SDS011;56792;50.644;17.984;2022-11-20T03:58:55;42.50;;;14.70;;
69588;SDS011;56792;50.644;17.984;2022-11-20T04:01:29;50.20;;;16.30;;
69588;SDS011;56792;50.644;17.984;2022-11-20T04:04:02;42.30;;;15.10;;
69588;SDS011;56792;50.644;17.984;2022-11-20T04:06:37;43.90;;;15.10;;
69588;SDS011;56792;50.644;17.984;2022-11-20T04:09:09;46.40;;;14.20;;
69588;SDS011;56792;50.644;17.984;2022-11-20T04:11:41;45.80;;;14.60;;
69588;SDS011;56792;50.644;17.984;2022-11-20T04:14:16;53.30;;;16.50;;
69588;SDS011;56792;50.644;17.984;2022-11-20T04:16:48;40.70;;;15.20;;
69588;SDS011;56792;50.644;17.984;2022-11-20T04:19:20;38.60;;;12.80;;
69588;SDS011;56792;50.644;17.984;2022-11-20T04:21:52;51.00;;;15.80;;
69588;SDS011;56792;50.644;17.984;2022-11-20T04:24:24;42.90;;;14.50;;
69588;SDS011;56792;50.644;17.984;2022-11-20T04:26:57;45.10;;;14.90;;
69588;SDS011;56792;50.644;17.984;2022-11-20T04:29:29;49.60;;;16.30;;
69588;SDS011;56792;50.644;17.984;2022-11-20T04:32:01;35.90;;;12.40;;
69588;SDS011;56792;50.644;17.984;2022-11-20T04:34:34;43.70;;;12.80;;
69588;SDS011;56792;50.644;17.984;2022-11-20T04:37:06;41.90;;;13.60;;
69588;SDS011;56792;50.644;17.984;2022-11-20T04:39:38;47.10;;;14.40;;
69588;SDS011;56792;50.644;17.984;2022-11-20T04:42:11;51.80;;;14.90;;
69588;SDS011;56792;50.644;17.984;2022-11-20T04:44:59;44.90;;;14.40;;
69588;SDS011;56792;50.644;17.984;2022-11-20T04:47:31;51.40;;;14.30;;
69588;SDS011;56792;50.644;17.984;2022-11-20T04:50:03;47.10;;;15.80;;
69588;SDS011;56792;50.644;17.984;2022-11-20T04:52:36;43.90;;;13.10;;
69588;SDS011;56792;50.644;17.984;2022-11-20T04:55:09;47.00;;;15.40;;
69588;SDS011;56792;50.644;17.984;2022-11-20T04:57:40;47.60;;;16.00;;
69588;SDS011;56792;50.644;17.984;2022-11-20T05:00:14;51.30;;;16.40;;
69588;SDS011;56792;50.644;17.984;2022-11-20T05:02:47;49.50;;;16.80;;
69588;SDS011;56792;50.644;17.984;2022-11-20T05:05:19;46.70;;;14.40;;
69588;SDS011;56792;50.644;17.984;2022-11-20T05:07:51;51.40;;;16.40;;
69588;SDS011;56792;50.644;17.984;2022-11-20T05:10:25;45.00;;;15.20;;
69588;SDS011;56792;50.644;17.984;2022-11-20T05:12:58;47.80;;;15.20;;
69588;SDS011;56792;50.644;17.984;2022-11-20T05:15:30;61.00;;;17.80;;
69588;SDS011;56792;50.644;17.984;2022-11-20T05:18:02;58.90;;;16.40;;
69588;SDS011;56792;50.644;17.984;2022-11-20T05:20:35;51.60;;;17.00;;
69588;SDS011;56792;50.644;17.984;2022-11-20T05:23:06;52.20;;;14.40;;
69588;SDS011;56792;50.644;17.984;2022-11-20T05:25:39;54.70;;;15.10;;
69588;SDS011;56792;50.644;17.984;2022-11-20T05:28:10;52.70;;;16.60;;
69588;SDS011;56792;50.644;17.984;2022-11-20T05:30:42;44.70;;;15.10;;
69588;SDS011;56792;50.644;17.984;2022-11-20T05:33:14;49.10;;;14.70;;
69588;SDS011;56792;50.644;17.984;2022-11-20T05:35:47;43.00;;;13.80;;
69588;SDS011;56792;50.644;17.984;2022-11-20T05:38:19;38.60;;;13.20;;
69588;SDS011;56792;50.644;17.984;2022-11-20T05:40:51;44.40;;;13.30;;
69588;SDS011;56792;50.644;17.984;2022-11-20T05:43:23;43.60;;;13.90;;
69588;SDS011;56792;50.644;17.984;2022-11-20T05:45:55;51.50;;;15.00;;
69588;SDS011;56792;50.644;17.984;2022-11-20T05:48:28;48.30;;;12.70;;
69588;SDS011;56792;50.644;17.984;2022-11-20T05:51:00;43.80;;;13.70;;
69588;SDS011;56792;50.644;17.984;2022-11-20T05:53:35;50.10;;;14.50;;
69588;SDS011;56792;50.644;17.984;2022-11-20T05:56:09;48.30;;;13.50;;
69588;SDS011;56792;50.644;17.984;2022-11-20T05:58:42;52.60;;;14.60;;
69588;SDS011;56792;50.644;17.984;2022-11-20T06:01:16;56.50;;;16.00;;
69588;SDS011;56792;50.644;17.984;2022-11-20T06:03:50;71.80;;;20.00;;
69588;SDS011;56792;50.644;17.984;2022-11-20T06:06:23;56.20;;;18.00;;
69588;SDS011;56792;50.644;17.984;2022-11-20T06:08:56;47.00;;;14.90;;
69588;SDS011;56792;50.644;17.984;2022-11-20T06:11:28;59.60;;;17.10;;
69588;SDS011;56792;50.644;17.984;2022-11-20T06:14:00;60.10;;;17.90;;
69588;SDS011;56792;50.644;17.984;2022-11-20T06:16:32;69.40;;;20.00;;
69588;SDS011;56792;50.644;17.984;2022-11-20T06:19:04;50.50;;;16.90;;
69588;SDS011;56792;50.644;17.984;2022-11-20T06:21:37;52.10;;;15.40;;
69588;SDS011;56792;50.644;17.984;2022-11-20T06:24:10;53.10;;;15.80;;
69588;SDS011;56792;50.644;17.984;2022-11-20T06:26:42;52.80;;;15.60;;
69588;SDS011;56792;50.644;17.984;2022-11-20T06:29:15;50.40;;;16.70;;
69588;SDS011;56792;50.644;17.984;2022-11-20T06:31:48;52.10;;;18.00;;
69588;SDS011;56792;50.644;17.984;2022-11-20T06:34:21;50.20;;;15.50;;
69588;SDS011;56792;50.644;17.984;2022-11-20T06:36:53;54.80;;;17.70;;
69588;SDS011;56792;50.644;17.984;2022-11-20T06:39:25;44.50;;;14.30;;
69588;SDS011;56792;50.644;17.984;2022-11-20T06:41:56;49.70;;;15.20;;
69588;SDS011;56792;50.644;17.984;2022-11-20T06:44:28;47.50;;;17.30;;
69588;SDS011;56792;50.644;17.984;2022-11-20T06:47:01;50.50;;;16.80;;
69588;SDS011;56792;50.644;17.984;2022-11-20T06:49:33;44.70;;;16.60;;
69588;SDS011;56792;50.644;17.984;2022-11-20T06:52:07;46.40;;;15.00;;
69588;SDS011;56792;50.644;17.984;2022-11-20T06:54:39;49.50;;;17.40;;
69588;SDS011;56792;50.644;17.984;2022-11-20T06:57:11;57.40;;;18.10;;
69588;SDS011;56792;50.644;17.984;2022-11-20T06:59:44;58.10;;;16.00;;
69588;SDS011;56792;50.644;17.984;2022-11-20T07:02:16;56.20;;;16.90;;
69588;SDS011;56792;50.644;17.984;2022-11-20T07:04:48;48.40;;;14.30;;
69588;SDS011;56792;50.644;17.984;2022-11-20T07:07:20;47.40;;;15.20;;
69588;SDS011;56792;50.644;17.984;2022-11-20T07:09:53;44.80;;;15.40;;
69588;SDS011;56792;50.644;17.984;2022-11-20T07:12:25;45.80;;;14.20;;
69588;SDS011;56792;50.644;17.984;2022-11-20T07:14:57;45.10;;;15.40;;
69588;SDS011;56792;50.644;17.984;2022-11-20T07:17:29;46.00;;;14.80;;
69588;SDS011;56792;50.644;17.984;2022-11-20T07:20:02;46.40;;;17.00;;
69588;SDS011;56792;50.644;17.984;2022-11-20T07:22:35;53.50;;;17.20;;
69588;SDS011;56792;50.644;17.984;2022-11-20T07:25:09;51.10;;;17.10;;
69588;SDS011;56792;50.644;17.984;2022-11-20T07:27:41;51.90;;;20.30;;
69588;SDS011;56792;50.644;17.984;2022-11-20T07:30:15;50.10;;;19.40;;
69588;SDS011;56792;50.644;17.984;2022-11-20T07:32:51;50.10;;;18.70;;
69588;SDS011;56792;50.644;17.984;2022-11-20T07:35:25;54.40;;;20.10;;
69588;SDS011;56792;50.644;17.984;2022-11-20T07:37:57;56.80;;;21.40;;
69588;SDS011;56792;50.644;17.984;2022-11-20T07:40:29;58.80;;;22.60;;
69588;SDS011;56792;50.644;17.984;2022-11-20T07:43:02;58.50;;;21.00;;
69588;SDS011;56792;50.644;17.984;2022-11-20T07:45:34;60.70;;;24.00;;
69588;SDS011;56792;50.644;17.984;2022-11-20T07:48:06;63.80;;;24.60;;
69588;SDS011;56792;50.644;17.984;2022-11-20T07:50:39;67.30;;;25.60;;
69588;SDS011;56792;50.644;17.984;2022-11-20T07:53:11;67.40;;;27.30;;
69588;SDS011;56792;50.644;17.984;2022-11-20T07:55:49;72.50;;;26.90;;
69588;SDS011;56792;50.644;17.984;2022-11-20T07:58:22;69.60;;;29.60;;
69588;SDS011;56792;50.644;17.984;2022-11-20T08:00:55;73.00;;;28.80;;
69588;SDS011;56792;50.644;17.984;2022-11-20T08:03:27;72.60;;;27.30;;
69588;SDS011;56792;50.644;17.984;2022-11-20T08:06:01;68.80;;;29.60;;
69588;SDS011;56792;50.644;17.984;2022-11-20T08:08:34;64.50;;;25.10;;
69588;SDS011;56792;50.644;17.984;2022-11-20T08:11:08;74.40;;;28.40;;
69588;SDS011;56792;50.644;17.984;2022-11-20T08:13:58;74.90;;;29.70;;
69588;SDS011;56792;50.644;17.984;2022-11-20T08:16:44;64.50;;;27.90;;
69588;SDS011;56792;50.644;17.984;2022-11-20T08:19:18;72.20;;;27.60;;
69588;SDS011;56792;50.644;17.984;2022-11-20T08:21:51;74.60;;;28.80;;
69588;SDS011;56792;50.644;17.984;2022-11-20T08:24:23;77.90;;;31.80;;
69588;SDS011;56792;50.644;17.984;2022-11-20T08:26:56;70.60;;;29.50;;
69588;SDS011;56792;50.644;17.984;2022-11-20T08:29:36;71.70;;;29.10;;
69588;SDS011;56792;50.644;17.984;2022-11-20T08:32:09;59.90;;;24.10;;
69588;SDS011;56792;50.644;17.984;2022-11-20T08:34:42;67.90;;;27.30;;
69588;SDS011;56792;50.644;17.984;2022-11-20T08:37:15;77.80;;;31.00;;
69588;SDS011;56792;50.644;17.984;2022-11-20T08:39:47;79.30;;;34.10;;
69588;SDS011;56792;50.644;17.984;2022-11-20T08:42:19;77.80;;;35.50;;
69588;SDS011;56792;50.644;17.984;2022-11-20T08:44:51;103.60;;;41.90;;
69588;SDS011;56792;50.644;17.984;2022-11-20T08:47:24;82.40;;;33.60;;
69588;SDS011;56792;50.644;17.984;2022-11-20T08:49:56;70.80;;;30.00;;
69588;SDS011;56792;50.644;17.984;2022-11-20T08:52:29;74.50;;;33.10;;
69588;SDS011;56792;50.644;17.984;2022-11-20T08:55:01;67.90;;;30.20;;
69588;SDS011;56792;50.644;17.984;2022-11-20T08:57:35;60.90;;;26.40;;
69588;SDS011;56792;50.644;17.984;2022-11-20T09:00:11;67.60;;;33.20;;
69588;SDS011;56792;50.644;17.984;2022-11-20T09:02:45;67.00;;;28.50;;
69588;SDS011;56792;50.644;17.984;2022-11-20T09:05:17;63.40;;;27.50;;
69588;SDS011;56792;50.644;17.984;2022-11-20T09:07:50;66.80;;;28.70;;
69588;SDS011;56792;50.644;17.984;2022-11-20T09:10:22;89.10;;;43.30;;
69588;SDS011;56792;50.644;17.984;2022-11-20T09:12:55;64.00;;;28.40;;
69588;SDS011;56792;50.644;17.984;2022-11-20T09:15:28;60.10;;;28.00;;
69588;SDS011;56792;50.644;17.984;2022-11-20T09:18:02;55.30;;;24.30;;
69588;SDS011;56792;50.644;17.984;2022-11-20T09:20:36;52.80;;;24.60;;
69588;SDS011;56792;50.644;17.984;2022-11-20T09:23:09;58.70;;;27.20;;
69588;SDS011;56792;50.644;17.984;2022-11-20T09:25:42;57.20;;;26.00;;
69588;SDS011;56792;50.644;17.984;2022-11-20T09:28:16;56.10;;;25.10;;
69588;SDS011;56792;50.644;17.984;2022-11-20T09:30:49;52.20;;;25.20;;
69588;SDS011;56792;50.644;17.984;2022-11-20T09:33:22;51.90;;;25.10;;
69588;SDS011;56792;50.644;17.984;2022-11-20T09:35:54;65.50;;;30.20;;
69588;SDS011;56792;50.644;17.984;2022-11-20T09:38:27;66.00;;;28.20;;
69588;SDS011;56792;50.644;17.984;2022-11-20T09:41:05;68.00;;;28.90;;
69588;SDS011;56792;50.644;17.984;2022-11-20T09:43:57;59.20;;;28.50;;
69588;SDS011;56792;50.644;17.984;2022-11-20T09:46:37;67.90;;;31.00;;
69588;SDS011;56792;50.644;17.984;2022-11-20T09:49:25;76.50;;;35.50;;
69588;SDS011;56792;50.644;17.984;2022-11-20T09:52:17;70.00;;;34.80;;
69588;SDS011;56792;50.644;17.984;2022-11-20T09:54:57;72.50;;;33.60;;
69588;SDS011;56792;50.644;17.984;2022-11-20T09:57:36;73.50;;;34.60;;
69588;SDS011;56792;50.644;17.984;2022-11-20T10:00:16;68.90;;;33.40;;
69588;SDS011;56792;50.644;17.984;2022-11-20T10:02:55;72.10;;;34.20;;
69588;SDS011;56792;50.644;17.984;2022-11-20T10:05:34;68.50;;;32.60;;
69588;SDS011;56792;50.644;17.984;2022-11-20T10:08:19;72.20;;;31.90;;
69588;SDS011;56792;50.644;17.984;2022-11-20T10:11:05;71.80;;;33.30;;
69588;SDS011;56792;50.644;17.984;2022-11-20T10:13:51;60.50;;;27.90;;
69588;SDS011;56792;50.644;17.984;2022-11-20T10:16:43;65.00;;;28.20;;
69588;SDS011;56792;50.644;17.984;2022-11-20T10:19:38;61.90;;;28.00;;
69588;SDS011;56792;50.644;17.984;2022-11-20T10:22:34;64.90;;;30.50;;
69588;SDS011;56792;50.644;17.984;2022-11-20T10:25:18;55.80;;;28.50;;
69588;SDS011;56792;50.644;17.984;2022-11-20T10:28:02;60.20;;;30.50;;
69588;SDS011;56792;50.644;17.984;2022-11-20T10:30:46;61.90;;;30.30;;
69588;SDS011;56792;50.644;17.984;2022-11-20T10:33:25;62.80;;;33.00;;
69588;SDS011;56792;50.644;17.984;2022-11-20T10:36:08;60.90;;;30.40;;
69588;SDS011;56792;50.644;17.984;2022-11-20T10:38:50;59.50;;;29.70;;
69588;SDS011;56792;50.644;17.984;2022-11-20T10:41:27;63.30;;;31.50;;
69588;SDS011;56792;50.644;17.984;2022-11-20T10:44:05;53.90;;;28.90;;
69588;SDS011;56792;50.644;17.984;2022-11-20T10:46:44;49.40;;;24.50;;
69588;SDS011;56792;50.644;17.984;2022-11-20T10:49:18;47.00;;;22.70;;
69588;SDS011;56792;50.644;17.984;2022-11-20T10:52:02;45.70;;;23.80;;
69588;SDS011;56792;50.644;17.984;2022-11-20T10:54:47;43.60;;;22.50;;
69588;SDS011;56792;50.644;17.984;2022-11-20T10:57:35;46.90;;;22.90;;
69588;SDS011;56792;50.644;17.984;2022-11-20T11:00:20;48.20;;;22.60;;
69588;SDS011;56792;50.644;17.984;2022-11-20T11:02:53;44.30;;;20.80;;
69588;SDS011;56792;50.644;17.984;2022-11-20T11:05:36;45.60;;;23.80;;
69588;SDS011;56792;50.644;17.984;2022-11-20T11:08:14;48.70;;;25.40;;
69588;SDS011;56792;50.644;17.984;2022-11-20T11:10:53;46.40;;;24.70;;
69588;SDS011;56792;50.644;17.984;2022-11-20T11:13:29;50.20;;;26.80;;
69588;SDS011;56792;50.644;17.984;2022-11-20T11:16:16;53.00;;;28.20;;
69588;SDS011;56792;50.644;17.984;2022-11-20T11:19:03;58.60;;;31.60;;
69588;SDS011;56792;50.644;17.984;2022-11-20T11:21:36;54.40;;;31.20;;
69588;SDS011;56792;50.644;17.984;2022-11-20T11:24:22;51.80;;;30.70;;
69588;SDS011;56792;50.644;17.984;2022-11-20T11:27:00;53.90;;;32.20;;
69588;SDS011;56792;50.644;17.984;2022-11-20T11:29:35;55.60;;;32.20;;
69588;SDS011;56792;50.644;17.984;2022-11-20T11:32:13;53.40;;;31.70;;
69588;SDS011;56792;50.644;17.984;2022-11-20T11:35:06;55.20;;;33.20;;
69588;SDS011;56792;50.644;17.984;2022-11-20T11:37:53;60.30;;;35.90;;
69588;SDS011;56792;50.644;17.984;2022-11-20T11:40:34;62.60;;;37.70;;
69588;SDS011;56792;50.644;17.984;2022-11-20T11:43:19;62.30;;;36.20;;
69588;SDS011;56792;50.644;17.984;2022-11-20T11:46:25;66.80;;;40.30;;
69588;SDS011;56792;50.644;17.984;2022-11-20T11:49:11;63.30;;;38.40;;
69588;SDS011;56792;50.644;17.984;2022-11-20T11:52:08;65.90;;;40.10;;
69588;SDS011;56792;50.644;17.984;2022-11-20T11:54:48;62.40;;;37.80;;
69588;SDS011;56792;50.644;17.984;2022-11-20T11:57:26;61.20;;;38.10;;
69588;SDS011;56792;50.644;17.984;2022-11-20T12:00:09;53.40;;;31.50;;
69588;SDS011;56792;50.644;17.984;2022-11-20T12:02:52;50.80;;;32.70;;
69588;SDS011;56792;50.644;17.984;2022-11-20T12:05:34;53.90;;;33.10;;
69588;SDS011;56792;50.644;17.984;2022-11-20T12:08:17;53.60;;;32.80;;
69588;SDS011;56792;50.644;17.984;2022-11-20T12:10:57;59.60;;;34.40;;
69588;SDS011;56792;50.644;17.984;2022-11-20T12:13:40;48.40;;;29.70;;
69588;SDS011;56792;50.644;17.984;2022-11-20T12:16:19;60.20;;;36.00;;
69588;SDS011;56792;50.644;17.984;2022-11-20T12:18:54;66.70;;;38.50;;
69588;SDS011;56792;50.644;17.984;2022-11-20T12:21:34;60.70;;;35.40;;
69588;SDS011;56792;50.644;17.984;2022-11-20T12:24:35;75.30;;;42.20;;
69588;SDS011;56792;50.644;17.984;2022-11-20T12:30:34;43.00;;;26.60;;
69588;SDS011;56792;50.644;17.984;2022-11-20T12:33:40;43.60;;;27.30;;
69588;SDS011;56792;50.644;17.984;2022-11-20T12:36:37;45.00;;;26.30;;
69588;SDS011;56792;50.644;17.984;2022-11-20T12:39:33;47.40;;;29.50;;
69588;SDS011;56792;50.644;17.984;2022-11-20T12:42:25;46.70;;;27.80;;
69588;SDS011;56792;50.644;17.984;2022-11-20T12:45:53;39.80;;;23.30;;
69588;SDS011;56792;50.644;17.984;2022-11-20T12:52:07;46.30;;;26.10;;
69588;SDS011;56792;50.644;17.984;2022-11-20T12:58:00;39.40;;;25.40;;
69588;SDS011;56792;50.644;17.984;2022-11-20T13:00:50;42.00;;;25.70;;
69588;SDS011;56792;50.644;17.984;2022-11-20T13:03:38;39.80;;;25.30;;
69588;SDS011;56792;50.644;17.984;2022-11-20T13:06:18;39.80;;;25.30;;
69588;SDS011;56792;50.644;17.984;2022-11-20T13:08:55;58.90;;;35.00;;
69588;SDS011;56792;50.644;17.984;2022-11-20T13:11:31;44.70;;;25.90;;
69588;SDS011;56792;50.644;17.984;2022-11-20T13:14:19;38.20;;;23.80;;
69588;SDS011;56792;50.644;17.984;2022-11-20T13:17:09;39.40;;;24.60;;
69588;SDS011;56792;50.644;17.984;2022-11-20T13:19:52;39.10;;;22.80;;
69588;SDS011;56792;50.644;17.984;2022-11-20T13:22:56;39.60;;;21.90;;
69588;SDS011;56792;50.644;17.984;2022-11-20T13:25:30;35.40;;;20.70;;
69588;SDS011;56792;50.644;17.984;2022-11-20T13:31:00;38.10;;;20.80;;
69588;SDS011;56792;50.644;17.984;2022-11-20T13:33:35;37.40;;;20.90;;
69588;SDS011;56792;50.644;17.984;2022-11-20T13:36:23;30.70;;;17.80;;
69588;SDS011;56792;50.644;17.984;2022-11-20T13:39:07;34.40;;;17.60;;
69588;SDS011;56792;50.644;17.984;2022-11-20T13:41:53;35.10;;;18.20;;
69588;SDS011;56792;50.644;17.984;2022-11-20T13:44:33;36.60;;;18.40;;
69588;SDS011;56792;50.644;17.984;2022-11-20T13:51:32;31.40;;;16.50;;
69588;SDS011;56792;50.644;17.984;2022-11-20T13:54:32;37.00;;;17.90;;
69588;SDS011;56792;50.644;17.984;2022-11-20T14:00:55;33.00;;;15.70;;
69588;SDS011;56792;50.644;17.984;2022-11-20T14:03:36;30.00;;;15.10;;
69588;SDS011;56792;50.644;17.984;2022-11-20T14:06:20;36.20;;;18.10;;
69588;SDS011;56792;50.644;17.984;2022-11-20T14:09:01;32.90;;;14.70;;
69588;SDS011;56792;50.644;17.984;2022-11-20T14:11:47;28.80;;;13.50;;
69588;SDS011;56792;50.644;17.984;2022-11-20T14:14:22;33.20;;;13.50;;
69588;SDS011;56792;50.644;17.984;2022-11-20T14:17:08;29.70;;;13.30;;
69588;SDS011;56792;50.644;17.984;2022-11-20T14:19:50;29.80;;;14.60;;
69588;SDS011;56792;50.644;17.984;2022-11-20T14:22:25;38.20;;;19.10;;
69588;SDS011;56792;50.644;17.984;2022-11-20T14:25:18;38.20;;;18.90;;
69588;SDS011;56792;50.644;17.984;2022-11-20T14:27:56;28.80;;;15.00;;
69588;SDS011;56792;50.644;17.984;2022-11-20T14:30:37;27.40;;;13.20;;
69588;SDS011;56792;50.644;17.984;2022-11-20T14:33:17;25.30;;;12.20;;
69588;SDS011;56792;50.644;17.984;2022-11-20T14:35:59;26.10;;;12.60;;
69588;SDS011;56792;50.644;17.984;2022-11-20T14:38:34;30.20;;;15.30;;
69588;SDS011;56792;50.644;17.984;2022-11-20T14:41:20;41.90;;;19.70;;
69588;SDS011;56792;50.644;17.984;2022-11-20T14:43:59;47.00;;;23.70;;
69588;SDS011;56792;50.644;17.984;2022-11-20T14:46:40;59.40;;;26.60;;
69588;SDS011;56792;50.644;17.984;2022-11-20T14:49:14;41.40;;;20.70;;
69588;SDS011;56792;50.644;17.984;2022-11-20T14:51:47;37.30;;;16.30;;
69588;SDS011;56792;50.644;17.984;2022-11-20T14:54:31;34.30;;;16.20;;
69588;SDS011;56792;50.644;17.984;2022-11-20T14:57:23;35.00;;;16.30;;
69588;SDS011;56792;50.644;17.984;2022-11-20T15:00:17;43.90;;;18.50;;
69588;SDS011;56792;50.644;17.984;2022-11-20T15:02:53;33.10;;;16.30;;
69588;SDS011;56792;50.644;17.984;2022-11-20T15:08:16;26.60;;;13.00;;
69588;SDS011;56792;50.644;17.984;2022-11-20T15:10:50;33.80;;;13.90;;
69588;SDS011;56792;50.644;17.984;2022-11-20T15:13:29;28.80;;;13.20;;
69588;SDS011;56792;50.644;17.984;2022-11-20T15:16:04;34.00;;;14.10;;
69588;SDS011;56792;50.644;17.984;2022-11-20T15:18:45;31.80;;;14.10;;
69588;SDS011;56792;50.644;17.984;2022-11-20T15:21:19;44.30;;;19.20;;
69588;SDS011;56792;50.644;17.984;2022-11-20T15:23:51;103.80;;;34.50;;
69588;SDS011;56792;50.644;17.984;2022-11-20T15:26:26;118.70;;;38.30;;
69588;SDS011;56792;50.644;17.984;2022-11-20T15:29:01;106.30;;;36.20;;